createdAt,value
2018-07-05T19:42:24.598Z,23.90
2018-07-05T19:45:04.271Z,23.86
2018-07-05T19:47:43.961Z,23.80
2018-07-05T19:50:23.649Z,23.71
2018-07-05T19:53:03.495Z,23.65
2018-07-05T19:55:43.270Z,23.50
2018-07-05T19:58:23.046Z,23.33
2018-07-05T20:01:02.681Z,23.24
2018-07-05T20:03:42.532Z,23.14
2018-07-05T20:06:22.325Z,23.07
2018-07-05T20:09:02.069Z,23.03
2018-07-05T20:11:47.317Z,22.95
2018-07-05T20:14:27.211Z,22.88
2018-07-05T20:17:06.876Z,22.82
2018-07-05T20:19:46.615Z,22.75
2018-07-05T20:22:26.441Z,22.70
2018-07-05T20:25:06.100Z,22.62
2018-07-05T20:27:45.858Z,22.57
2018-07-05T20:30:25.755Z,22.50
2018-07-05T20:33:05.408Z,22.43
2018-07-05T20:35:45.247Z,22.32
2018-07-05T20:38:24.757Z,22.24
2018-07-05T20:41:04.351Z,22.20
2018-07-05T20:43:44.104Z,22.13
2018-07-05T20:46:23.957Z,22.09
2018-07-05T20:49:03.720Z,22.03
2018-07-05T20:51:43.660Z,21.96
2018-07-05T20:54:23.496Z,21.92
2018-07-05T20:57:03.223Z,21.89
2018-07-05T20:59:43.064Z,21.85
2018-07-05T21:04:01.767Z,21.78
2018-07-05T21:06:41.380Z,21.66
2018-07-05T21:09:21.167Z,21.63
2018-07-05T21:12:00.850Z,21.58
2018-07-05T21:14:40.571Z,21.54
2018-07-05T21:17:20.233Z,21.48
2018-07-05T21:20:00.097Z,21.46
2018-07-05T21:22:39.923Z,21.43
2018-07-05T21:25:19.719Z,21.40
2018-07-05T21:27:59.524Z,21.37
2018-07-05T21:30:39.315Z,21.35
2018-07-05T21:33:34.034Z,21.28
2018-07-05T21:36:13.864Z,21.19
2018-07-05T21:38:53.727Z,21.18
2018-07-05T21:41:33.343Z,21.14
2018-07-05T21:44:13.044Z,21.11
2018-07-05T21:46:52.812Z,21.09
2018-07-05T21:49:32.524Z,21.07
2018-07-05T21:52:12.347Z,21.02
2018-07-05T21:54:52.133Z,20.97
2018-07-05T21:57:31.870Z,20.92
2018-07-05T22:00:11.518Z,20.89
2018-07-05T22:02:51.455Z,20.89
2018-07-05T22:05:31.219Z,20.82
2018-07-05T22:08:10.906Z,20.75
2018-07-05T22:10:50.748Z,20.72
2018-07-05T22:13:30.417Z,20.68
2018-07-05T22:16:10.079Z,20.64
2018-07-05T22:18:55.178Z,20.62
2018-07-05T22:21:39.068Z,20.57
2018-07-05T22:24:24.240Z,20.50
2018-07-05T22:27:03.948Z,20.51
2018-07-05T22:29:49.220Z,20.46
2018-07-05T22:32:28.916Z,20.44
2018-07-05T22:35:08.577Z,20.48
2018-07-05T22:37:48.382Z,20.50
2018-07-05T22:40:28.224Z,20.50
2018-07-05T22:43:08.003Z,20.45
2018-07-05T22:45:47.809Z,20.42
2018-07-05T22:48:27.486Z,20.38
2018-07-05T22:51:07.128Z,20.33
2018-07-05T22:53:46.836Z,20.31
2018-07-05T22:56:26.620Z,20.29
2018-07-05T22:59:06.390Z,20.25
2018-07-05T23:01:46.176Z,20.21
2018-07-05T23:04:25.888Z,20.19
2018-07-05T23:07:05.590Z,20.17
2018-07-05T23:09:45.164Z,20.15
2018-07-05T23:12:24.792Z,20.09
2018-07-05T23:15:04.572Z,20.00
2018-07-05T23:17:44.440Z,19.95
2018-07-05T23:20:24.024Z,19.94
2018-07-05T23:23:03.703Z,19.88
2018-07-05T23:25:43.367Z,19.89
2018-07-05T23:28:23.186Z,19.87
2018-07-05T23:31:03.056Z,19.87
2018-07-05T23:33:42.750Z,19.84
2018-07-05T23:36:22.497Z,19.74
2018-07-05T23:39:02.340Z,19.68
2018-07-05T23:41:41.987Z,19.66
2018-07-05T23:44:21.784Z,19.66
2018-07-05T23:47:01.377Z,19.61
2018-07-05T23:49:41.149Z,19.57
2018-07-05T23:52:20.833Z,19.53
2018-07-05T23:55:00.654Z,19.51
2018-07-05T23:57:40.254Z,19.48
